Farrsville, Texas
Current Conditions -  °F | °C
As of 8:15 AM on Friday 19 Dec 2014 (Local Time) from KJAS Reporting Station
Moderate Rain Moderate Rain  
Wind Chill: 51°   Ceiling: 500
Heat Index: 51°   Visibility: 10mi
Dew Point: 51°   Wind: 0mph
Humidity: 97%   Direction: NA
Pressure: 30.1"   Gusts: NA
Location:  31.0751°N, 93.8073°W
Report Text: KJAS 191415Z AUTO 00000KT 10SM RA BKN005 BKN019 OVC033 11/10 A3010 RMK AO2 P0001 T01080103
Loading
Personal Weather Stations






























Interactive Weather Map New forecast layout! Learn more

10-Day Weather Forecast

Advertisements
Track Severe Weather on mobile